sensor_id;sensor_type;location;lat;lon;timestamp;P1;durP1;ratioP1;P2;durP2;ratioP2
75620;SDS011;64574;48.506;-2.750;2023-07-16T00:00:50;12.38;;;5.00;;
75620;SDS011;64574;48.506;-2.750;2023-07-16T00:03:16;15.38;;;4.70;;
75620;SDS011;64574;48.506;-2.750;2023-07-16T00:05:41;14.35;;;4.75;;
75620;SDS011;64574;48.506;-2.750;2023-07-16T00:08:07;12.35;;;5.10;;
75620;SDS011;64574;48.506;-2.750;2023-07-16T00:10:36;16.13;;;5.82;;
75620;SDS011;64574;48.506;-2.750;2023-07-16T00:13:02;13.82;;;5.22;;
75620;SDS011;64574;48.506;-2.750;2023-07-16T00:15:28;17.10;;;5.70;;
75620;SDS011;64574;48.506;-2.750;2023-07-16T00:17:54;13.88;;;4.70;;
75620;SDS011;64574;48.506;-2.750;2023-07-16T00:20:20;14.13;;;4.90;;
75620;SDS011;64574;48.506;-2.750;2023-07-16T00:22:48;14.55;;;5.45;;
75620;SDS011;64574;48.506;-2.750;2023-07-16T00:25:14;14.18;;;5.25;;
75620;SDS011;64574;48.506;-2.750;2023-07-16T00:27:39;14.48;;;5.75;;
75620;SDS011;64574;48.506;-2.750;2023-07-16T00:30:05;16.52;;;5.13;;
75620;SDS011;64574;48.506;-2.750;2023-07-16T00:34:58;11.85;;;4.30;;
75620;SDS011;64574;48.506;-2.750;2023-07-16T00:37:23;10.63;;;4.70;;
75620;SDS011;64574;48.506;-2.750;2023-07-16T00:39:49;10.77;;;4.28;;
75620;SDS011;64574;48.506;-2.750;2023-07-16T00:42:15;11.57;;;4.10;;
75620;SDS011;64574;48.506;-2.750;2023-07-16T00:44:40;11.00;;;4.07;;
75620;SDS011;64574;48.506;-2.750;2023-07-16T00:47:06;12.57;;;4.15;;
75620;SDS011;64574;48.506;-2.750;2023-07-16T00:49:33;16.33;;;4.78;;
75620;SDS011;64574;48.506;-2.750;2023-07-16T00:51:58;15.60;;;3.95;;
75620;SDS011;64574;48.506;-2.750;2023-07-16T00:54:25;12.95;;;4.45;;
75620;SDS011;64574;48.506;-2.750;2023-07-16T00:56:51;10.23;;;3.85;;
75620;SDS011;64574;48.506;-2.750;2023-07-16T00:59:17;14.85;;;4.22;;
75620;SDS011;64574;48.506;-2.750;2023-07-16T01:01:42;12.88;;;4.32;;
75620;SDS011;64574;48.506;-2.750;2023-07-16T01:04:08;14.95;;;3.95;;
75620;SDS011;64574;48.506;-2.750;2023-07-16T01:06:40;13.23;;;4.22;;
75620;SDS011;64574;48.506;-2.750;2023-07-16T01:09:16;14.18;;;4.70;;
75620;SDS011;64574;48.506;-2.750;2023-07-16T01:11:44;12.90;;;3.97;;
75620;SDS011;64574;48.506;-2.750;2023-07-16T01:14:10;16.48;;;4.43;;
75620;SDS011;64574;48.506;-2.750;2023-07-16T01:16:38;16.05;;;5.15;;
75620;SDS011;64574;48.506;-2.750;2023-07-16T01:19:03;12.63;;;5.72;;
75620;SDS011;64574;48.506;-2.750;2023-07-16T01:21:43;18.48;;;5.55;;
75620;SDS011;64574;48.506;-2.750;2023-07-16T01:27:22;16.95;;;4.75;;
75620;SDS011;64574;48.506;-2.750;2023-07-16T01:30:15;14.35;;;4.82;;
75620;SDS011;64574;48.506;-2.750;2023-07-16T01:32:44;12.88;;;4.70;;
75620;SDS011;64574;48.506;-2.750;2023-07-16T01:35:11;18.80;;;5.57;;
75620;SDS011;64574;48.506;-2.750;2023-07-16T01:37:38;15.00;;;5.18;;
75620;SDS011;64574;48.506;-2.750;2023-07-16T01:40:06;13.80;;;4.75;;
75620;SDS011;64574;48.506;-2.750;2023-07-16T01:42:34;13.73;;;5.10;;
75620;SDS011;64574;48.506;-2.750;2023-07-16T01:44:59;11.50;;;4.78;;
75620;SDS011;64574;48.506;-2.750;2023-07-16T01:49:53;16.05;;;4.68;;
75620;SDS011;64574;48.506;-2.750;2023-07-16T01:52:19;16.00;;;5.45;;
75620;SDS011;64574;48.506;-2.750;2023-07-16T01:54:45;16.00;;;4.90;;
75620;SDS011;64574;48.506;-2.750;2023-07-16T01:57:10;15.65;;;4.60;;
75620;SDS011;64574;48.506;-2.750;2023-07-16T01:59:36;14.63;;;4.50;;
75620;SDS011;64574;48.506;-2.750;2023-07-16T02:02:02;15.73;;;5.57;;
75620;SDS011;64574;48.506;-2.750;2023-07-16T02:04:27;14.98;;;5.22;;
75620;SDS011;64574;48.506;-2.750;2023-07-16T02:06:53;17.40;;;5.32;;
75620;SDS011;64574;48.506;-2.750;2023-07-16T02:09:19;16.90;;;5.45;;
75620;SDS011;64574;48.506;-2.750;2023-07-16T02:11:45;12.77;;;5.07;;
75620;SDS011;64574;48.506;-2.750;2023-07-16T02:14:10;11.48;;;4.75;;
75620;SDS011;64574;48.506;-2.750;2023-07-16T02:16:36;15.00;;;5.07;;
75620;SDS011;64574;48.506;-2.750;2023-07-16T02:19:02;15.80;;;4.43;;
75620;SDS011;64574;48.506;-2.750;2023-07-16T02:21:27;12.43;;;5.05;;
75620;SDS011;64574;48.506;-2.750;2023-07-16T02:23:53;13.15;;;4.22;;
75620;SDS011;64574;48.506;-2.750;2023-07-16T02:26:19;15.07;;;5.18;;
75620;SDS011;64574;48.506;-2.750;2023-07-16T02:28:44;16.98;;;4.68;;
75620;SDS011;64574;48.506;-2.750;2023-07-16T02:31:10;13.05;;;4.55;;
75620;SDS011;64574;48.506;-2.750;2023-07-16T02:33:36;15.80;;;4.88;;
75620;SDS011;64574;48.506;-2.750;2023-07-16T02:36:01;13.30;;;4.82;;
75620;SDS011;64574;48.506;-2.750;2023-07-16T02:38:27;17.25;;;5.13;;
75620;SDS011;64574;48.506;-2.750;2023-07-16T02:40:53;11.85;;;4.50;;
75620;SDS011;64574;48.506;-2.750;2023-07-16T02:43:18;13.13;;;4.80;;
75620;SDS011;64574;48.506;-2.750;2023-07-16T02:45:44;20.98;;;5.03;;
75620;SDS011;64574;48.506;-2.750;2023-07-16T02:48:10;14.00;;;4.40;;
75620;SDS011;64574;48.506;-2.750;2023-07-16T02:50:36;11.10;;;4.47;;
75620;SDS011;64574;48.506;-2.750;2023-07-16T02:53:05;11.07;;;5.57;;
75620;SDS011;64574;48.506;-2.750;2023-07-16T02:55:32;15.50;;;4.22;;
75620;SDS011;64574;48.506;-2.750;2023-07-16T02:57:59;14.52;;;4.65;;
75620;SDS011;64574;48.506;-2.750;2023-07-16T03:00:29;15.02;;;4.45;;
75620;SDS011;64574;48.506;-2.750;2023-07-16T03:02:56;10.57;;;4.20;;
75620;SDS011;64574;48.506;-2.750;2023-07-16T03:05:23;12.20;;;3.97;;
75620;SDS011;64574;48.506;-2.750;2023-07-16T03:07:48;13.20;;;4.70;;
75620;SDS011;64574;48.506;-2.750;2023-07-16T03:10:14;14.40;;;4.22;;
75620;SDS011;64574;48.506;-2.750;2023-07-16T03:12:40;12.98;;;3.83;;
75620;SDS011;64574;48.506;-2.750;2023-07-16T03:15:05;13.93;;;4.22;;
75620;SDS011;64574;48.506;-2.750;2023-07-16T03:17:32;12.13;;;3.67;;
75620;SDS011;64574;48.506;-2.750;2023-07-16T03:19:57;12.35;;;4.25;;
75620;SDS011;64574;48.506;-2.750;2023-07-16T03:22:23;13.48;;;4.32;;
75620;SDS011;64574;48.506;-2.750;2023-07-16T03:24:48;14.25;;;4.03;;
75620;SDS011;64574;48.506;-2.750;2023-07-16T03:27:14;8.20;;;3.60;;
75620;SDS011;64574;48.506;-2.750;2023-07-16T03:29:39;10.43;;;3.85;;
75620;SDS011;64574;48.506;-2.750;2023-07-16T03:32:05;9.07;;;2.90;;
75620;SDS011;64574;48.506;-2.750;2023-07-16T03:34:31;10.68;;;3.65;;
75620;SDS011;64574;48.506;-2.750;2023-07-16T03:36:57;9.98;;;3.08;;
75620;SDS011;64574;48.506;-2.750;2023-07-16T03:39:22;7.78;;;3.30;;
75620;SDS011;64574;48.506;-2.750;2023-07-16T03:41:48;8.18;;;2.65;;
75620;SDS011;64574;48.506;-2.750;2023-07-16T03:44:14;8.10;;;2.70;;
75620;SDS011;64574;48.506;-2.750;2023-07-16T03:46:39;6.93;;;2.50;;
75620;SDS011;64574;48.506;-2.750;2023-07-16T03:49:08;6.57;;;2.50;;
75620;SDS011;64574;48.506;-2.750;2023-07-16T03:51:34;8.05;;;2.53;;
75620;SDS011;64574;48.506;-2.750;2023-07-16T03:53:59;8.80;;;2.67;;
75620;SDS011;64574;48.506;-2.750;2023-07-16T03:56:25;9.57;;;3.45;;
75620;SDS011;64574;48.506;-2.750;2023-07-16T03:58:51;9.57;;;2.40;;
75620;SDS011;64574;48.506;-2.750;2023-07-16T04:01:16;5.80;;;2.13;;
75620;SDS011;64574;48.506;-2.750;2023-07-16T04:03:42;7.65;;;2.10;;
75620;SDS011;64574;48.506;-2.750;2023-07-16T04:06:08;6.97;;;2.45;;
75620;SDS011;64574;48.506;-2.750;2023-07-16T04:08:35;4.57;;;1.75;;
75620;SDS011;64574;48.506;-2.750;2023-07-16T04:11:01;5.57;;;2.35;;
75620;SDS011;64574;48.506;-2.750;2023-07-16T04:13:27;7.38;;;2.20;;
75620;SDS011;64574;48.506;-2.750;2023-07-16T04:15:53;6.63;;;1.70;;
75620;SDS011;64574;48.506;-2.750;2023-07-16T04:18:24;7.57;;;2.35;;
75620;SDS011;64574;48.506;-2.750;2023-07-16T04:20:50;3.95;;;1.70;;
75620;SDS011;64574;48.506;-2.750;2023-07-16T04:23:16;5.03;;;1.88;;
75620;SDS011;64574;48.506;-2.750;2023-07-16T04:25:41;8.13;;;1.85;;
75620;SDS011;64574;48.506;-2.750;2023-07-16T04:28:07;5.10;;;1.60;;
75620;SDS011;64574;48.506;-2.750;2023-07-16T04:30:33;3.60;;;1.50;;
75620;SDS011;64574;48.506;-2.750;2023-07-16T04:32:58;5.20;;;1.83;;
75620;SDS011;64574;48.506;-2.750;2023-07-16T04:35:24;5.40;;;1.85;;
75620;SDS011;64574;48.506;-2.750;2023-07-16T04:37:50;6.68;;;1.75;;
75620;SDS011;64574;48.506;-2.750;2023-07-16T04:40:15;5.53;;;1.90;;
75620;SDS011;64574;48.506;-2.750;2023-07-16T04:42:41;5.00;;;1.55;;
75620;SDS011;64574;48.506;-2.750;2023-07-16T04:45:06;6.32;;;1.30;;
75620;SDS011;64574;48.506;-2.750;2023-07-16T04:47:32;5.50;;;1.55;;
75620;SDS011;64574;48.506;-2.750;2023-07-16T04:49:58;6.13;;;1.52;;
75620;SDS011;64574;48.506;-2.750;2023-07-16T04:52:24;3.70;;;1.92;;
75620;SDS011;64574;48.506;-2.750;2023-07-16T04:54:50;4.35;;;1.33;;
75620;SDS011;64574;48.506;-2.750;2023-07-16T04:57:15;5.80;;;1.38;;
75620;SDS011;64574;48.506;-2.750;2023-07-16T04:59:41;4.25;;;1.30;;
75620;SDS011;64574;48.506;-2.750;2023-07-16T05:02:07;5.68;;;1.33;;
75620;SDS011;64574;48.506;-2.750;2023-07-16T05:04:33;5.43;;;1.30;;
75620;SDS011;64574;48.506;-2.750;2023-07-16T05:07:03;9.75;;;1.40;;
75620;SDS011;64574;48.506;-2.750;2023-07-16T05:09:28;5.60;;;1.08;;
75620;SDS011;64574;48.506;-2.750;2023-07-16T05:11:54;2.20;;;0.93;;
75620;SDS011;64574;48.506;-2.750;2023-07-16T05:14:20;6.38;;;1.48;;
75620;SDS011;64574;48.506;-2.750;2023-07-16T05:16:46;4.03;;;1.38;;
75620;SDS011;64574;48.506;-2.750;2023-07-16T05:19:11;5.35;;;1.30;;
75620;SDS011;64574;48.506;-2.750;2023-07-16T05:21:37;3.85;;;1.17;;
75620;SDS011;64574;48.506;-2.750;2023-07-16T05:24:03;6.15;;;1.20;;
75620;SDS011;64574;48.506;-2.750;2023-07-16T05:26:29;6.45;;;1.50;;
75620;SDS011;64574;48.506;-2.750;2023-07-16T05:28:54;7.25;;;1.20;;
75620;SDS011;64574;48.506;-2.750;2023-07-16T05:31:20;5.15;;;1.38;;
75620;SDS011;64574;48.506;-2.750;2023-07-16T05:33:46;5.95;;;1.10;;
75620;SDS011;64574;48.506;-2.750;2023-07-16T05:36:11;4.20;;;1.20;;
75620;SDS011;64574;48.506;-2.750;2023-07-16T05:38:37;3.53;;;1.00;;
75620;SDS011;64574;48.506;-2.750;2023-07-16T05:41:02;6.70;;;1.42;;
75620;SDS011;64574;48.506;-2.750;2023-07-16T05:43:29;4.38;;;1.00;;
75620;SDS011;64574;48.506;-2.750;2023-07-16T05:45:55;5.43;;;1.13;;
75620;SDS011;64574;48.506;-2.750;2023-07-16T05:48:21;4.47;;;1.08;;
75620;SDS011;64574;48.506;-2.750;2023-07-16T05:50:46;5.03;;;1.17;;
75620;SDS011;64574;48.506;-2.750;2023-07-16T05:53:12;6.70;;;1.20;;
75620;SDS011;64574;48.506;-2.750;2023-07-16T05:55:41;5.80;;;1.10;;
75620;SDS011;64574;48.506;-2.750;2023-07-16T05:58:06;4.18;;;1.20;;
75620;SDS011;64574;48.506;-2.750;2023-07-16T06:00:32;3.95;;;1.08;;
75620;SDS011;64574;48.506;-2.750;2023-07-16T06:02:58;5.53;;;1.20;;
75620;SDS011;64574;48.506;-2.750;2023-07-16T06:05:23;8.02;;;1.48;;
75620;SDS011;64574;48.506;-2.750;2023-07-16T06:07:52;4.15;;;1.20;;
75620;SDS011;64574;48.506;-2.750;2023-07-16T06:10:17;6.00;;;1.38;;
75620;SDS011;64574;48.506;-2.750;2023-07-16T06:12:43;6.60;;;1.20;;
75620;SDS011;64574;48.506;-2.750;2023-07-16T06:15:09;4.93;;;1.30;;
75620;SDS011;64574;48.506;-2.750;2023-07-16T06:17:35;4.68;;;1.30;;
75620;SDS011;64574;48.506;-2.750;2023-07-16T06:20:01;4.40;;;1.20;;
75620;SDS011;64574;48.506;-2.750;2023-07-16T06:22:28;3.80;;;1.20;;
75620;SDS011;64574;48.506;-2.750;2023-07-16T06:24:53;7.78;;;1.60;;
75620;SDS011;64574;48.506;-2.750;2023-07-16T06:27:19;7.85;;;1.67;;
75620;SDS011;64574;48.506;-2.750;2023-07-16T06:29:44;6.47;;;1.30;;
75620;SDS011;64574;48.506;-2.750;2023-07-16T06:32:10;4.30;;;1.20;;
75620;SDS011;64574;48.506;-2.750;2023-07-16T06:34:36;7.20;;;1.83;;
75620;SDS011;64574;48.506;-2.750;2023-07-16T06:37:01;5.23;;;1.60;;
75620;SDS011;64574;48.506;-2.750;2023-07-16T06:39:27;3.88;;;1.40;;
75620;SDS011;64574;48.506;-2.750;2023-07-16T06:41:53;6.40;;;1.30;;
75620;SDS011;64574;48.506;-2.750;2023-07-16T06:44:18;9.73;;;2.17;;
75620;SDS011;64574;48.506;-2.750;2023-07-16T06:46:44;5.20;;;1.80;;
75620;SDS011;64574;48.506;-2.750;2023-07-16T06:49:09;6.53;;;1.80;;
75620;SDS011;64574;48.506;-2.750;2023-07-16T06:51:35;6.70;;;1.73;;
75620;SDS011;64574;48.506;-2.750;2023-07-16T06:54:00;7.67;;;2.17;;
75620;SDS011;64574;48.506;-2.750;2023-07-16T06:56:26;9.52;;;2.00;;
75620;SDS011;64574;48.506;-2.750;2023-07-16T06:58:52;5.85;;;1.65;;
75620;SDS011;64574;48.506;-2.750;2023-07-16T07:06:08;5.00;;;1.15;;
75620;SDS011;64574;48.506;-2.750;2023-07-16T07:08:35;7.05;;;1.52;;
75620;SDS011;64574;48.506;-2.750;2023-07-16T07:11:01;6.35;;;1.27;;
75620;SDS011;64574;48.506;-2.750;2023-07-16T07:13:29;5.85;;;1.30;;
75620;SDS011;64574;48.506;-2.750;2023-07-16T07:15:54;7.93;;;1.58;;
75620;SDS011;64574;48.506;-2.750;2023-07-16T07:18:20;10.43;;;1.60;;
75620;SDS011;64574;48.506;-2.750;2023-07-16T07:20:46;4.20;;;1.30;;
75620;SDS011;64574;48.506;-2.750;2023-07-16T07:23:15;6.63;;;1.35;;
75620;SDS011;64574;48.506;-2.750;2023-07-16T07:25:41;8.15;;;1.65;;
75620;SDS011;64574;48.506;-2.750;2023-07-16T07:28:07;5.65;;;1.67;;
75620;SDS011;64574;48.506;-2.750;2023-07-16T07:30:32;6.65;;;1.52;;
75620;SDS011;64574;48.506;-2.750;2023-07-16T07:32:58;7.28;;;1.52;;
75620;SDS011;64574;48.506;-2.750;2023-07-16T07:35:24;8.25;;;1.80;;
75620;SDS011;64574;48.506;-2.750;2023-07-16T07:37:49;8.63;;;1.50;;
75620;SDS011;64574;48.506;-2.750;2023-07-16T07:40:15;5.95;;;1.73;;
75620;SDS011;64574;48.506;-2.750;2023-07-16T07:42:41;7.13;;;1.63;;
75620;SDS011;64574;48.506;-2.750;2023-07-16T07:45:06;6.38;;;1.77;;
75620;SDS011;64574;48.506;-2.750;2023-07-16T07:47:32;9.55;;;2.05;;
75620;SDS011;64574;48.506;-2.750;2023-07-16T07:49:58;8.15;;;1.80;;
75620;SDS011;64574;48.506;-2.750;2023-07-16T07:52:23;7.43;;;1.35;;
75620;SDS011;64574;48.506;-2.750;2023-07-16T07:54:49;10.35;;;1.70;;
75620;SDS011;64574;48.506;-2.750;2023-07-16T07:57:15;6.57;;;1.30;;
75620;SDS011;64574;48.506;-2.750;2023-07-16T07:59:40;5.57;;;1.25;;
75620;SDS011;64574;48.506;-2.750;2023-07-16T08:02:06;7.60;;;1.70;;
75620;SDS011;64574;48.506;-2.750;2023-07-16T08:04:32;7.95;;;1.63;;
75620;SDS011;64574;48.506;-2.750;2023-07-16T08:06:57;6.18;;;1.85;;
75620;SDS011;64574;48.506;-2.750;2023-07-16T08:09:23;6.32;;;1.40;;
75620;SDS011;64574;48.506;-2.750;2023-07-16T08:11:50;6.30;;;1.27;;
75620;SDS011;64574;48.506;-2.750;2023-07-16T08:14:16;4.95;;;1.08;;
75620;SDS011;64574;48.506;-2.750;2023-07-16T08:16:41;5.25;;;1.27;;
75620;SDS011;64574;48.506;-2.750;2023-07-16T08:19:07;8.30;;;1.35;;
75620;SDS011;64574;48.506;-2.750;2023-07-16T08:21:33;5.80;;;1.50;;
75620;SDS011;64574;48.506;-2.750;2023-07-16T08:23:59;8.15;;;1.42;;
75620;SDS011;64574;48.506;-2.750;2023-07-16T08:26:24;4.85;;;1.33;;
75620;SDS011;64574;48.506;-2.750;2023-07-16T08:28:50;5.45;;;1.30;;
75620;SDS011;64574;48.506;-2.750;2023-07-16T08:31:15;11.20;;;1.92;;
75620;SDS011;64574;48.506;-2.750;2023-07-16T08:33:41;7.97;;;1.40;;
75620;SDS011;64574;48.506;-2.750;2023-07-16T08:36:06;6.03;;;1.33;;
75620;SDS011;64574;48.506;-2.750;2023-07-16T08:38:32;9.25;;;1.60;;
75620;SDS011;64574;48.506;-2.750;2023-07-16T08:40:59;8.27;;;1.73;;
75620;SDS011;64574;48.506;-2.750;2023-07-16T08:43:25;6.18;;;1.60;;
75620;SDS011;64574;48.506;-2.750;2023-07-16T08:48:18;5.55;;;1.45;;
75620;SDS011;64574;48.506;-2.750;2023-07-16T08:50:45;4.97;;;1.35;;
75620;SDS011;64574;48.506;-2.750;2023-07-16T08:53:12;3.38;;;1.08;;
75620;SDS011;64574;48.506;-2.750;2023-07-16T08:55:44;8.30;;;1.70;;
75620;SDS011;64574;48.506;-2.750;2023-07-16T08:58:14;5.28;;;1.25;;
75620;SDS011;64574;48.506;-2.750;2023-07-16T09:00:49;10.95;;;1.52;;
75620;SDS011;64574;48.506;-2.750;2023-07-16T09:03:16;9.82;;;1.33;;
75620;SDS011;64574;48.506;-2.750;2023-07-16T09:05:42;7.38;;;1.38;;
75620;SDS011;64574;48.506;-2.750;2023-07-16T09:08:10;7.28;;;1.08;;
75620;SDS011;64574;48.506;-2.750;2023-07-16T09:10:36;4.85;;;1.25;;
75620;SDS011;64574;48.506;-2.750;2023-07-16T09:13:02;5.03;;;1.00;;
75620;SDS011;64574;48.506;-2.750;2023-07-16T09:15:28;5.55;;;1.05;;
75620;SDS011;64574;48.506;-2.750;2023-07-16T09:17:55;5.22;;;1.05;;
75620;SDS011;64574;48.506;-2.750;2023-07-16T09:20:21;5.55;;;1.40;;
75620;SDS011;64574;48.506;-2.750;2023-07-16T09:22:48;5.40;;;1.20;;
75620;SDS011;64574;48.506;-2.750;2023-07-16T09:25:14;2.20;;;0.82;;
75620;SDS011;64574;48.506;-2.750;2023-07-16T09:27:40;4.68;;;1.10;;
75620;SDS011;64574;48.506;-2.750;2023-07-16T09:30:06;3.83;;;1.43;;
75620;SDS011;64574;48.506;-2.750;2023-07-16T09:32:33;7.95;;;1.10;;
75620;SDS011;64574;48.506;-2.750;2023-07-16T09:35:09;4.30;;;1.00;;
75620;SDS011;64574;48.506;-2.750;2023-07-16T09:37:39;6.18;;;1.15;;
75620;SDS011;64574;48.506;-2.750;2023-07-16T09:40:06;5.13;;;1.13;;
75620;SDS011;64574;48.506;-2.750;2023-07-16T09:42:39;6.28;;;1.40;;
75620;SDS011;64574;48.506;-2.750;2023-07-16T09:45:07;3.00;;;0.80;;
75620;SDS011;64574;48.506;-2.750;2023-07-16T09:47:38;3.90;;;1.00;;
75620;SDS011;64574;48.506;-2.750;2023-07-16T09:50:04;2.55;;;0.70;;
75620;SDS011;64574;48.506;-2.750;2023-07-16T09:52:31;5.32;;;1.10;;
75620;SDS011;64574;48.506;-2.750;2023-07-16T09:54:57;3.38;;;1.02;;
75620;SDS011;64574;48.506;-2.750;2023-07-16T09:57:26;3.13;;;0.80;;
75620;SDS011;64574;48.506;-2.750;2023-07-16T09:59:56;6.43;;;1.45;;
75620;SDS011;64574;48.506;-2.750;2023-07-16T10:02:25;4.93;;;1.05;;
75620;SDS011;64574;48.506;-2.750;2023-07-16T10:04:51;8.10;;;1.27;;
75620;SDS011;64574;48.506;-2.750;2023-07-16T10:07:24;5.57;;;1.40;;
75620;SDS011;64574;48.506;-2.750;2023-07-16T10:09:55;5.00;;;1.13;;
75620;SDS011;64574;48.506;-2.750;2023-07-16T10:12:25;5.55;;;1.27;;
75620;SDS011;64574;48.506;-2.750;2023-07-16T10:17:24;5.93;;;1.27;;
75620;SDS011;64574;48.506;-2.750;2023-07-16T10:20:09;6.13;;;1.20;;
75620;SDS011;64574;48.506;-2.750;2023-07-16T10:25:07;5.43;;;1.13;;
75620;SDS011;64574;48.506;-2.750;2023-07-16T10:27:33;4.15;;;1.10;;
75620;SDS011;64574;48.506;-2.750;2023-07-16T10:30:00;4.43;;;1.00;;
75620;SDS011;64574;48.506;-2.750;2023-07-16T10:32:31;5.38;;;1.05;;
75620;SDS011;64574;48.506;-2.750;2023-07-16T10:34:58;5.88;;;1.30;;
75620;SDS011;64574;48.506;-2.750;2023-07-16T10:37:24;5.72;;;0.80;;
75620;SDS011;64574;48.506;-2.750;2023-07-16T10:39:51;4.22;;;1.02;;
75620;SDS011;64574;48.506;-2.750;2023-07-16T10:42:18;4.57;;;1.00;;
75620;SDS011;64574;48.506;-2.750;2023-07-16T10:44:54;4.07;;;0.95;;
75620;SDS011;64574;48.506;-2.750;2023-07-16T10:47:23;4.75;;;0.98;;
75620;SDS011;64574;48.506;-2.750;2023-07-16T10:49:51;5.93;;;1.23;;
75620;SDS011;64574;48.506;-2.750;2023-07-16T10:59:41;3.70;;;1.00;;
75620;SDS011;64574;48.506;-2.750;2023-07-16T11:02:10;3.53;;;0.98;;
75620;SDS011;64574;48.506;-2.750;2023-07-16T11:26:56;5.20;;;2.03;;
75620;SDS011;64574;48.506;-2.750;2023-07-16T11:29:25;4.35;;;1.60;;
75620;SDS011;64574;48.506;-2.750;2023-07-16T11:31:51;4.95;;;1.50;;
75620;SDS011;64574;48.506;-2.750;2023-07-16T11:36:46;5.85;;;1.77;;
75620;SDS011;64574;48.506;-2.750;2023-07-16T11:39:13;3.80;;;1.70;;
75620;SDS011;64574;48.506;-2.750;2023-07-16T11:41:39;4.53;;;1.77;;
75620;SDS011;64574;48.506;-2.750;2023-07-16T11:44:06;5.13;;;2.00;;
75620;SDS011;64574;48.506;-2.750;2023-07-16T11:46:33;4.28;;;1.67;;
75620;SDS011;64574;48.506;-2.750;2023-07-16T11:48:59;5.35;;;2.15;;
75620;SDS011;64574;48.506;-2.750;2023-07-16T11:53:52;4.40;;;2.10;;
75620;SDS011;64574;48.506;-2.750;2023-07-16T11:56:17;5.65;;;2.33;;
75620;SDS011;64574;48.506;-2.750;2023-07-16T11:58:43;5.13;;;2.25;;
75620;SDS011;64574;48.506;-2.750;2023-07-16T12:01:09;3.38;;;1.85;;
75620;SDS011;64574;48.506;-2.750;2023-07-16T12:03:34;3.85;;;1.73;;
75620;SDS011;64574;48.506;-2.750;2023-07-16T12:27:50;6.10;;;2.65;;
75620;SDS011;64574;48.506;-2.750;2023-07-16T12:30:15;6.07;;;2.30;;
75620;SDS011;64574;48.506;-2.750;2023-07-16T12:39:58;7.60;;;2.85;;
75620;SDS011;64574;48.506;-2.750;2023-07-16T12:42:23;6.05;;;2.50;;
75620;SDS011;64574;48.506;-2.750;2023-07-16T12:44:49;7.43;;;3.53;;
75620;SDS011;64574;48.506;-2.750;2023-07-16T12:47:15;11.23;;;3.47;;
75620;SDS011;64574;48.506;-2.750;2023-07-16T12:49:41;7.13;;;2.58;;
75620;SDS011;64574;48.506;-2.750;2023-07-16T12:54:32;9.68;;;2.65;;
75620;SDS011;64574;48.506;-2.750;2023-07-16T12:56:58;8.65;;;2.65;;
75620;SDS011;64574;48.506;-2.750;2023-07-16T12:59:24;6.85;;;2.70;;
75620;SDS011;64574;48.506;-2.750;2023-07-16T13:01:49;6.97;;;2.70;;
75620;SDS011;64574;48.506;-2.750;2023-07-16T13:04:16;6.40;;;2.50;;
75620;SDS011;64574;48.506;-2.750;2023-07-16T13:06:41;4.53;;;2.55;;
75620;SDS011;64574;48.506;-2.750;2023-07-16T13:09:07;7.05;;;2.95;;
75620;SDS011;64574;48.506;-2.750;2023-07-16T13:11:33;5.50;;;2.55;;
75620;SDS011;64574;48.506;-2.750;2023-07-16T13:13:58;6.03;;;2.63;;
75620;SDS011;64574;48.506;-2.750;2023-07-16T13:16:24;7.65;;;3.28;;
75620;SDS011;64574;48.506;-2.750;2023-07-16T13:21:17;6.15;;;2.40;;
75620;SDS011;64574;48.506;-2.750;2023-07-16T13:23:42;4.95;;;2.83;;
75620;SDS011;64574;48.506;-2.750;2023-07-16T13:26:08;5.22;;;2.65;;
75620;SDS011;64574;48.506;-2.750;2023-07-16T13:28:33;6.25;;;3.00;;
75620;SDS011;64574;48.506;-2.750;2023-07-16T13:30:59;7.43;;;2.80;;
75620;SDS011;64574;48.506;-2.750;2023-07-16T13:33:25;7.45;;;2.80;;
75620;SDS011;64574;48.506;-2.750;2023-07-16T13:35:50;8.07;;;2.97;;
75620;SDS011;64574;48.506;-2.750;2023-07-16T13:38:16;5.78;;;2.90;;
75620;SDS011;64574;48.506;-2.750;2023-07-16T13:43:07;6.93;;;2.42;;
75620;SDS011;64574;48.506;-2.750;2023-07-16T13:45:33;5.72;;;2.50;;
75620;SDS011;64574;48.506;-2.750;2023-07-16T13:47:59;6.65;;;3.25;;
75620;SDS011;64574;48.506;-2.750;2023-07-16T13:50:25;5.88;;;2.50;;
75620;SDS011;64574;48.506;-2.750;2023-07-16T13:52:50;6.55;;;2.80;;
75620;SDS011;64574;48.506;-2.750;2023-07-16T13:55:17;5.53;;;2.83;;
75620;SDS011;64574;48.506;-2.750;2023-07-16T13:57:42;8.18;;;3.03;;
75620;SDS011;64574;48.506;-2.750;2023-07-16T14:00:08;8.15;;;3.10;;
75620;SDS011;64574;48.506;-2.750;2023-07-16T14:02:35;8.65;;;3.08;;
75620;SDS011;64574;48.506;-2.750;2023-07-16T14:05:01;10.20;;;3.05;;
75620;SDS011;64574;48.506;-2.750;2023-07-16T14:07:27;7.10;;;2.65;;
75620;SDS011;64574;48.506;-2.750;2023-07-16T14:09:52;4.20;;;2.13;;
75620;SDS011;64574;48.506;-2.750;2023-07-16T14:12:18;4.70;;;2.00;;
75620;SDS011;64574;48.506;-2.750;2023-07-16T14:14:44;5.35;;;2.30;;
75620;SDS011;64574;48.506;-2.750;2023-07-16T14:17:10;6.38;;;2.00;;
75620;SDS011;64574;48.506;-2.750;2023-07-16T14:19:35;5.50;;;1.98;;
75620;SDS011;64574;48.506;-2.750;2023-07-16T14:22:01;5.85;;;1.92;;
75620;SDS011;64574;48.506;-2.750;2023-07-16T14:24:27;8.25;;;2.55;;
75620;SDS011;64574;48.506;-2.750;2023-07-16T14:26:52;4.50;;;2.20;;
75620;SDS011;64574;48.506;-2.750;2023-07-16T14:29:18;7.57;;;2.92;;
75620;SDS011;64574;48.506;-2.750;2023-07-16T14:31:43;5.05;;;2.53;;
75620;SDS011;64574;48.506;-2.750;2023-07-16T14:34:09;6.03;;;2.50;;
75620;SDS011;64574;48.506;-2.750;2023-07-16T14:36:35;6.63;;;2.60;;
75620;SDS011;64574;48.506;-2.750;2023-07-16T14:39:01;4.13;;;2.28;;
75620;SDS011;64574;48.506;-2.750;2023-07-16T14:41:26;7.18;;;2.80;;
75620;SDS011;64574;48.506;-2.750;2023-07-16T14:43:52;6.15;;;2.72;;
75620;SDS011;64574;48.506;-2.750;2023-07-16T14:46:18;5.13;;;2.20;;
75620;SDS011;64574;48.506;-2.750;2023-07-16T14:48:43;5.07;;;2.08;;
75620;SDS011;64574;48.506;-2.750;2023-07-16T14:51:10;4.47;;;2.00;;
75620;SDS011;64574;48.506;-2.750;2023-07-16T14:53:36;4.82;;;2.40;;
75620;SDS011;64574;48.506;-2.750;2023-07-16T14:56:03;5.45;;;1.98;;
75620;SDS011;64574;48.506;-2.750;2023-07-16T14:58:30;5.18;;;2.05;;
75620;SDS011;64574;48.506;-2.750;2023-07-16T15:00:59;4.95;;;1.92;;
75620;SDS011;64574;48.506;-2.750;2023-07-16T15:03:26;6.15;;;1.98;;
75620;SDS011;64574;48.506;-2.750;2023-07-16T15:05:55;6.43;;;2.22;;
75620;SDS011;64574;48.506;-2.750;2023-07-16T15:08:24;4.38;;;1.80;;
75620;SDS011;64574;48.506;-2.750;2023-07-16T15:10:51;4.82;;;1.80;;
75620;SDS011;64574;48.506;-2.750;2023-07-16T15:13:17;4.03;;;1.60;;
75620;SDS011;64574;48.506;-2.750;2023-07-16T15:15:49;6.75;;;1.65;;
75620;SDS011;64574;48.506;-2.750;2023-07-16T15:18:15;4.63;;;2.20;;
75620;SDS011;64574;48.506;-2.750;2023-07-16T15:20:40;4.93;;;1.80;;
75620;SDS011;64574;48.506;-2.750;2023-07-16T15:23:06;4.85;;;2.00;;
75620;SDS011;64574;48.506;-2.750;2023-07-16T15:25:32;4.45;;;1.80;;
75620;SDS011;64574;48.506;-2.750;2023-07-16T15:27:57;7.28;;;2.13;;
75620;SDS011;64574;48.506;-2.750;2023-07-16T15:30:24;5.72;;;2.35;;
75620;SDS011;64574;48.506;-2.750;2023-07-16T15:32:50;6.68;;;2.08;;
75620;SDS011;64574;48.506;-2.750;2023-07-16T15:35:17;7.03;;;2.20;;
75620;SDS011;64574;48.506;-2.750;2023-07-16T15:37:42;7.22;;;3.10;;
75620;SDS011;64574;48.506;-2.750;2023-07-16T15:40:12;8.15;;;2.45;;
75620;SDS011;64574;48.506;-2.750;2023-07-16T15:42:41;11.48;;;3.30;;
75620;SDS011;64574;48.506;-2.750;2023-07-16T15:45:11;8.93;;;2.80;;
75620;SDS011;64574;48.506;-2.750;2023-07-16T15:47:41;9.23;;;3.63;;
75620;SDS011;64574;48.506;-2.750;2023-07-16T15:50:10;5.85;;;2.92;;
75620;SDS011;64574;48.506;-2.750;2023-07-16T15:52:36;8.65;;;3.03;;
75620;SDS011;64574;48.506;-2.750;2023-07-16T15:55:02;9.77;;;3.42;;
75620;SDS011;64574;48.506;-2.750;2023-07-16T15:57:29;7.20;;;2.65;;